sensor_id;sensor_type;location;lat;lon;timestamp;P1;durP1;ratioP1;P2;durP2;ratioP2
1615;SDS011;801;47.982;7.810;2022-08-19T02:31:14;2.17;;;2.00;;
1615;SDS011;801;47.982;7.810;2022-08-19T02:33:44;4.82;;;2.38;;
1615;SDS011;801;47.982;7.810;2022-08-19T02:36:12;4.85;;;2.20;;
1615;SDS011;801;47.982;7.810;2022-08-19T02:38:40;2.88;;;1.90;;
1615;SDS011;801;47.982;7.810;2022-08-19T02:41:07;2.90;;;2.55;;
1615;SDS011;801;47.982;7.810;2022-08-19T02:43:40;3.63;;;2.08;;
1615;SDS011;801;47.982;7.810;2022-08-19T02:46:16;3.88;;;2.10;;
1615;SDS011;801;47.982;7.810;2022-08-19T02:48:46;2.33;;;2.05;;
1615;SDS011;801;47.982;7.810;2022-08-19T02:51:15;3.13;;;2.13;;
1615;SDS011;801;47.982;7.810;2022-08-19T02:53:43;3.88;;;2.97;;
1615;SDS011;801;47.982;7.810;2022-08-19T02:56:10;3.03;;;1.95;;
1615;SDS011;801;47.982;7.810;2022-08-19T02:58:36;3.22;;;1.85;;
1615;SDS011;801;47.982;7.810;2022-08-19T03:01:03;2.90;;;1.80;;
1615;SDS011;801;47.982;7.810;2022-08-19T03:03:31;2.53;;;2.00;;
1615;SDS011;801;47.982;7.810;2022-08-19T03:06:08;2.75;;;2.10;;
1615;SDS011;801;47.982;7.810;2022-08-19T03:08:38;1.92;;;1.38;;
1615;SDS011;801;47.982;7.810;2022-08-19T03:11:11;3.45;;;1.90;;
1615;SDS011;801;47.982;7.810;2022-08-19T03:13:39;4.68;;;2.47;;
1615;SDS011;801;47.982;7.810;2022-08-19T03:16:06;3.92;;;2.58;;
1615;SDS011;801;47.982;7.810;2022-08-19T03:18:33;2.95;;;2.42;;
1615;SDS011;801;47.982;7.810;2022-08-19T03:21:00;4.22;;;2.00;;
1615;SDS011;801;47.982;7.810;2022-08-19T03:23:27;2.38;;;1.70;;
1615;SDS011;801;47.982;7.810;2022-08-19T03:25:53;2.28;;;1.77;;
1615;SDS011;801;47.982;7.810;2022-08-19T03:28:20;3.03;;;1.98;;
1615;SDS011;801;47.982;7.810;2022-08-19T03:30:57;4.80;;;2.65;;
1615;SDS011;801;47.982;7.810;2022-08-19T03:33:26;2.88;;;2.67;;
1615;SDS011;801;47.982;7.810;2022-08-19T03:36:05;2.63;;;2.33;;
1615;SDS011;801;47.982;7.810;2022-08-19T03:38:35;3.08;;;1.83;;
1615;SDS011;801;47.982;7.810;2022-08-19T03:41:03;5.45;;;3.47;;
1615;SDS011;801;47.982;7.810;2022-08-19T03:43:33;2.35;;;2.15;;
1615;SDS011;801;47.982;7.810;2022-08-19T03:46:00;8.30;;;3.53;;
1615;SDS011;801;47.982;7.810;2022-08-19T03:48:29;2.97;;;1.95;;
1615;SDS011;801;47.982;7.810;2022-08-19T03:50:56;6.68;;;3.25;;
1615;SDS011;801;47.982;7.810;2022-08-19T03:53:26;5.35;;;2.25;;
1615;SDS011;801;47.982;7.810;2022-08-19T03:55:54;4.95;;;4.15;;
1615;SDS011;801;47.982;7.810;2022-08-19T03:58:22;16.67;;;4.07;;
1615;SDS011;801;47.982;7.810;2022-08-19T04:00:49;5.72;;;2.35;;
1615;SDS011;801;47.982;7.810;2022-08-19T04:03:15;5.00;;;4.50;;
1615;SDS011;801;47.982;7.810;2022-08-19T04:05:43;3.22;;;1.80;;
1615;SDS011;801;47.982;7.810;2022-08-19T04:08:10;5.47;;;2.92;;
1615;SDS011;801;47.982;7.810;2022-08-19T04:10:38;4.65;;;1.75;;
1615;SDS011;801;47.982;7.810;2022-08-19T04:13:05;3.28;;;2.35;;
1615;SDS011;801;47.982;7.810;2022-08-19T04:15:32;4.57;;;3.08;;
1615;SDS011;801;47.982;7.810;2022-08-19T04:18:04;4.57;;;2.22;;
1615;SDS011;801;47.982;7.810;2022-08-19T04:20:32;3.00;;;1.58;;
1615;SDS011;801;47.982;7.810;2022-08-19T04:22:59;3.10;;;2.72;;
1615;SDS011;801;47.982;7.810;2022-08-19T04:25:25;1.92;;;1.50;;
1615;SDS011;801;47.982;7.810;2022-08-19T04:27:53;4.75;;;2.83;;
1615;SDS011;801;47.982;7.810;2022-08-19T04:30:20;8.48;;;3.17;;
1615;SDS011;801;47.982;7.810;2022-08-19T04:32:47;3.28;;;2.45;;
1615;SDS011;801;47.982;7.810;2022-08-19T04:35:14;3.45;;;2.47;;
1615;SDS011;801;47.982;7.810;2022-08-19T04:37:41;2.72;;;2.25;;
1615;SDS011;801;47.982;7.810;2022-08-19T04:40:08;2.72;;;1.90;;
1615;SDS011;801;47.982;7.810;2022-08-19T04:42:53;5.05;;;2.65;;
1615;SDS011;801;47.982;7.810;2022-08-19T04:45:21;10.05;;;3.60;;
1615;SDS011;801;47.982;7.810;2022-08-19T04:47:48;3.50;;;2.75;;
1615;SDS011;801;47.982;7.810;2022-08-19T04:50:15;2.95;;;2.13;;
1615;SDS011;801;47.982;7.810;2022-08-19T04:52:41;4.05;;;2.80;;
1615;SDS011;801;47.982;7.810;2022-08-19T04:55:08;2.95;;;2.20;;
1615;SDS011;801;47.982;7.810;2022-08-19T04:57:35;5.53;;;2.85;;
1615;SDS011;801;47.982;7.810;2022-08-19T05:00:07;5.13;;;3.10;;
1615;SDS011;801;47.982;7.810;2022-08-19T05:02:34;2.88;;;2.42;;
1615;SDS011;801;47.982;7.810;2022-08-19T05:05:01;3.65;;;2.83;;
1615;SDS011;801;47.982;7.810;2022-08-19T05:07:29;3.38;;;2.42;;
1615;SDS011;801;47.982;7.810;2022-08-19T05:09:55;3.25;;;2.17;;
1615;SDS011;801;47.982;7.810;2022-08-19T05:12:22;3.47;;;2.97;;
1615;SDS011;801;47.982;7.810;2022-08-19T05:14:48;3.90;;;2.10;;
1615;SDS011;801;47.982;7.810;2022-08-19T05:17:18;2.38;;;2.17;;
1615;SDS011;801;47.982;7.810;2022-08-19T05:19:44;4.22;;;2.60;;
1615;SDS011;801;47.982;7.810;2022-08-19T05:22:28;4.50;;;2.72;;
1615;SDS011;801;47.982;7.810;2022-08-19T05:24:59;7.85;;;4.20;;
1615;SDS011;801;47.982;7.810;2022-08-19T05:27:28;3.05;;;2.28;;
1615;SDS011;801;47.982;7.810;2022-08-19T05:29:55;4.68;;;3.92;;
1615;SDS011;801;47.982;7.810;2022-08-19T05:32:23;5.32;;;2.75;;
1615;SDS011;801;47.982;7.810;2022-08-19T05:34:49;2.67;;;2.25;;
1615;SDS011;801;47.982;7.810;2022-08-19T05:37:16;4.70;;;3.35;;
1615;SDS011;801;47.982;7.810;2022-08-19T05:39:42;2.85;;;2.05;;
1615;SDS011;801;47.982;7.810;2022-08-19T05:42:10;3.90;;;2.30;;
1615;SDS011;801;47.982;7.810;2022-08-19T05:44:38;3.70;;;1.98;;
1615;SDS011;801;47.982;7.810;2022-08-19T05:47:09;3.08;;;2.25;;
1615;SDS011;801;47.982;7.810;2022-08-19T05:49:38;4.18;;;2.28;;
1615;SDS011;801;47.982;7.810;2022-08-19T05:52:05;3.28;;;2.45;;
1615;SDS011;801;47.982;7.810;2022-08-19T05:54:34;3.97;;;3.15;;
1615;SDS011;801;47.982;7.810;2022-08-19T05:57:00;5.03;;;2.70;;
1615;SDS011;801;47.982;7.810;2022-08-19T05:59:27;4.35;;;3.00;;
1615;SDS011;801;47.982;7.810;2022-08-19T06:01:54;6.00;;;2.85;;
1615;SDS011;801;47.982;7.810;2022-08-19T06:04:22;3.55;;;2.72;;
1615;SDS011;801;47.982;7.810;2022-08-19T06:06:52;5.07;;;2.88;;
1615;SDS011;801;47.982;7.810;2022-08-19T06:09:19;5.13;;;3.33;;
1615;SDS011;801;47.982;7.810;2022-08-19T06:11:48;4.07;;;3.08;;
1615;SDS011;801;47.982;7.810;2022-08-19T06:14:18;3.45;;;2.72;;
1615;SDS011;801;47.982;7.810;2022-08-19T06:16:47;2.75;;;2.28;;
1615;SDS011;801;47.982;7.810;2022-08-19T06:19:16;4.53;;;2.78;;
1615;SDS011;801;47.982;7.810;2022-08-19T06:21:45;2.10;;;1.80;;
1615;SDS011;801;47.982;7.810;2022-08-19T06:24:15;5.32;;;3.05;;
1615;SDS011;801;47.982;7.810;2022-08-19T06:26:48;3.67;;;2.05;;
1615;SDS011;801;47.982;7.810;2022-08-19T06:29:16;5.68;;;2.80;;
1615;SDS011;801;47.982;7.810;2022-08-19T06:31:44;4.88;;;2.38;;
1615;SDS011;801;47.982;7.810;2022-08-19T06:34:15;2.78;;;2.00;;
1615;SDS011;801;47.982;7.810;2022-08-19T06:36:43;3.53;;;2.78;;
1615;SDS011;801;47.982;7.810;2022-08-19T06:39:11;3.65;;;2.45;;
1615;SDS011;801;47.982;7.810;2022-08-19T06:41:42;5.07;;;3.17;;
1615;SDS011;801;47.982;7.810;2022-08-19T06:44:10;2.67;;;2.33;;
1615;SDS011;801;47.982;7.810;2022-08-19T06:46:38;5.97;;;3.17;;
1615;SDS011;801;47.982;7.810;2022-08-19T06:49:05;3.35;;;2.20;;
1615;SDS011;801;47.982;7.810;2022-08-19T06:51:34;3.65;;;2.10;;
1615;SDS011;801;47.982;7.810;2022-08-19T06:54:00;3.35;;;2.60;;
1615;SDS011;801;47.982;7.810;2022-08-19T06:56:28;3.58;;;2.08;;
1615;SDS011;801;47.982;7.810;2022-08-19T06:58:59;4.75;;;3.55;;
1615;SDS011;801;47.982;7.810;2022-08-19T07:01:26;4.07;;;3.13;;
1615;SDS011;801;47.982;7.810;2022-08-19T07:03:53;5.97;;;3.40;;
1615;SDS011;801;47.982;7.810;2022-08-19T07:06:20;3.45;;;2.50;;
1615;SDS011;801;47.982;7.810;2022-08-19T07:08:46;3.13;;;2.35;;
1615;SDS011;801;47.982;7.810;2022-08-19T07:11:15;2.45;;;1.60;;
1615;SDS011;801;47.982;7.810;2022-08-19T07:13:43;3.83;;;1.80;;
1615;SDS011;801;47.982;7.810;2022-08-19T07:16:13;2.80;;;2.25;;
1615;SDS011;801;47.982;7.810;2022-08-19T07:18:41;2.45;;;1.98;;
1615;SDS011;801;47.982;7.810;2022-08-19T07:21:10;2.55;;;1.58;;
1615;SDS011;801;47.982;7.810;2022-08-19T07:23:37;5.60;;;3.30;;
1615;SDS011;801;47.982;7.810;2022-08-19T07:26:04;3.58;;;2.72;;
1615;SDS011;801;47.982;7.810;2022-08-19T07:28:32;4.78;;;2.33;;
1615;SDS011;801;47.982;7.810;2022-08-19T07:30:58;4.30;;;2.78;;
1615;SDS011;801;47.982;7.810;2022-08-19T07:33:28;4.60;;;2.45;;
1615;SDS011;801;47.982;7.810;2022-08-19T07:35:57;3.25;;;2.17;;
1615;SDS011;801;47.982;7.810;2022-08-19T07:38:24;3.78;;;2.22;;
1615;SDS011;801;47.982;7.810;2022-08-19T07:40:50;4.47;;;2.78;;
1615;SDS011;801;47.982;7.810;2022-08-19T07:43:17;5.10;;;2.67;;
1615;SDS011;801;47.982;7.810;2022-08-19T07:45:50;4.25;;;2.72;;
1615;SDS011;801;47.982;7.810;2022-08-19T07:48:17;4.90;;;2.25;;
1615;SDS011;801;47.982;7.810;2022-08-19T07:50:44;4.88;;;2.67;;
1615;SDS011;801;47.982;7.810;2022-08-19T07:53:13;8.45;;;2.70;;
1615;SDS011;801;47.982;7.810;2022-08-19T07:55:40;13.90;;;5.10;;
1615;SDS011;801;47.982;7.810;2022-08-19T07:58:06;3.83;;;2.83;;
1615;SDS011;801;47.982;7.810;2022-08-19T08:00:33;5.15;;;3.47;;
1615;SDS011;801;47.982;7.810;2022-08-19T08:03:00;7.88;;;5.00;;
1615;SDS011;801;47.982;7.810;2022-08-19T08:05:26;4.38;;;2.60;;
1615;SDS011;801;47.982;7.810;2022-08-19T08:08:12;6.35;;;3.65;;
1615;SDS011;801;47.982;7.810;2022-08-19T08:10:56;8.63;;;5.20;;
1615;SDS011;801;47.982;7.810;2022-08-19T08:13:23;7.45;;;4.07;;
1615;SDS011;801;47.982;7.810;2022-08-19T08:15:50;6.97;;;4.20;;
1615;SDS011;801;47.982;7.810;2022-08-19T08:18:16;6.78;;;4.53;;
1615;SDS011;801;47.982;7.810;2022-08-19T08:20:43;5.00;;;3.70;;
1615;SDS011;801;47.982;7.810;2022-08-19T08:23:11;7.47;;;3.65;;
1615;SDS011;801;47.982;7.810;2022-08-19T08:25:50;9.10;;;5.03;;
1615;SDS011;801;47.982;7.810;2022-08-19T08:28:18;8.43;;;3.72;;
1615;SDS011;801;47.982;7.810;2022-08-19T08:30:45;5.90;;;3.35;;
1615;SDS011;801;47.982;7.810;2022-08-19T08:33:13;10.15;;;5.13;;
1615;SDS011;801;47.982;7.810;2022-08-19T08:35:43;6.78;;;3.50;;
1615;SDS011;801;47.982;7.810;2022-08-19T08:38:12;9.82;;;4.50;;
1615;SDS011;801;47.982;7.810;2022-08-19T08:40:42;7.07;;;3.83;;
1615;SDS011;801;47.982;7.810;2022-08-19T08:43:13;8.77;;;3.85;;
1615;SDS011;801;47.982;7.810;2022-08-19T08:45:49;6.63;;;3.35;;
1615;SDS011;801;47.982;7.810;2022-08-19T08:48:20;4.85;;;3.47;;
1615;SDS011;801;47.982;7.810;2022-08-19T08:50:57;9.85;;;4.72;;
1615;SDS011;801;47.982;7.810;2022-08-19T08:53:27;5.55;;;3.35;;
1615;SDS011;801;47.982;7.810;2022-08-19T08:55:55;6.88;;;4.28;;
1615;SDS011;801;47.982;7.810;2022-08-19T08:58:24;7.50;;;4.60;;
1615;SDS011;801;47.982;7.810;2022-08-19T09:00:55;12.18;;;5.35;;
1615;SDS011;801;47.982;7.810;2022-08-19T09:03:24;7.85;;;5.00;;
1615;SDS011;801;47.982;7.810;2022-08-19T09:05:55;6.60;;;4.03;;
1615;SDS011;801;47.982;7.810;2022-08-19T09:08:30;5.53;;;4.07;;
1615;SDS011;801;47.982;7.810;2022-08-19T09:11:06;6.00;;;4.03;;
1615;SDS011;801;47.982;7.810;2022-08-19T09:13:37;5.80;;;3.80;;
1615;SDS011;801;47.982;7.810;2022-08-19T09:16:12;15.82;;;3.60;;
1615;SDS011;801;47.982;7.810;2022-08-19T09:18:42;6.18;;;3.95;;
1615;SDS011;801;47.982;7.810;2022-08-19T09:21:11;9.63;;;4.78;;
1615;SDS011;801;47.982;7.810;2022-08-19T09:23:39;7.05;;;4.25;;
1615;SDS011;801;47.982;7.810;2022-08-19T09:26:07;10.88;;;4.10;;
1615;SDS011;801;47.982;7.810;2022-08-19T09:28:34;6.40;;;4.22;;
1615;SDS011;801;47.982;7.810;2022-08-19T09:31:02;6.28;;;3.95;;
1615;SDS011;801;47.982;7.810;2022-08-19T09:33:28;9.88;;;4.25;;
1615;SDS011;801;47.982;7.810;2022-08-19T09:36:01;3.90;;;3.47;;
1615;SDS011;801;47.982;7.810;2022-08-19T09:38:29;8.52;;;4.53;;
1615;SDS011;801;47.982;7.810;2022-08-19T09:41:01;16.92;;;4.40;;
1615;SDS011;801;47.982;7.810;2022-08-19T09:43:29;7.20;;;4.47;;
1615;SDS011;801;47.982;7.810;2022-08-19T09:45:56;6.88;;;4.72;;
1615;SDS011;801;47.982;7.810;2022-08-19T09:48:22;6.72;;;4.47;;
1615;SDS011;801;47.982;7.810;2022-08-19T09:50:48;6.80;;;4.18;;
1615;SDS011;801;47.982;7.810;2022-08-19T09:53:16;6.32;;;4.20;;
1615;SDS011;801;47.982;7.810;2022-08-19T09:55:42;10.38;;;4.15;;
1615;SDS011;801;47.982;7.810;2022-08-19T09:58:10;7.43;;;3.75;;
1615;SDS011;801;47.982;7.810;2022-08-19T10:00:37;9.80;;;5.45;;
1615;SDS011;801;47.982;7.810;2022-08-19T10:03:04;13.48;;;5.25;;
1615;SDS011;801;47.982;7.810;2022-08-19T10:05:30;7.35;;;5.20;;
1615;SDS011;801;47.982;7.810;2022-08-19T10:08:18;8.82;;;4.88;;
1615;SDS011;801;47.982;7.810;2022-08-19T10:10:46;6.30;;;3.85;;
1615;SDS011;801;47.982;7.810;2022-08-19T10:13:16;7.70;;;5.45;;
1615;SDS011;801;47.982;7.810;2022-08-19T10:15:46;10.52;;;4.95;;
1615;SDS011;801;47.982;7.810;2022-08-19T10:18:15;8.52;;;5.55;;
1615;SDS011;801;47.982;7.810;2022-08-19T10:20:43;9.88;;;4.65;;
1615;SDS011;801;47.982;7.810;2022-08-19T10:23:10;10.30;;;4.70;;
1615;SDS011;801;47.982;7.810;2022-08-19T10:25:36;10.73;;;4.80;;
1615;SDS011;801;47.982;7.810;2022-08-19T10:28:03;12.57;;;5.88;;
1615;SDS011;801;47.982;7.810;2022-08-19T10:30:32;7.40;;;5.03;;
1615;SDS011;801;47.982;7.810;2022-08-19T10:32:59;11.77;;;5.13;;
1615;SDS011;801;47.982;7.810;2022-08-19T10:35:25;8.27;;;4.78;;
1615;SDS011;801;47.982;7.810;2022-08-19T10:37:53;14.23;;;6.05;;
1615;SDS011;801;47.982;7.810;2022-08-19T10:40:21;4.90;;;3.55;;
1615;SDS011;801;47.982;7.810;2022-08-19T10:42:47;14.73;;;5.30;;
1615;SDS011;801;47.982;7.810;2022-08-19T10:45:14;7.03;;;4.97;;
1615;SDS011;801;47.982;7.810;2022-08-19T10:47:42;8.25;;;3.85;;
1615;SDS011;801;47.982;7.810;2022-08-19T10:50:09;5.93;;;4.03;;
1615;SDS011;801;47.982;7.810;2022-08-19T10:52:53;7.68;;;4.05;;
1615;SDS011;801;47.982;7.810;2022-08-19T10:55:20;7.70;;;3.97;;
1615;SDS011;801;47.982;7.810;2022-08-19T10:58:09;13.65;;;3.92;;
1615;SDS011;801;47.982;7.810;2022-08-19T11:00:37;8.75;;;4.53;;
1615;SDS011;801;47.982;7.810;2022-08-19T11:03:06;8.32;;;5.70;;
1615;SDS011;801;47.982;7.810;2022-08-19T11:05:33;5.25;;;3.65;;
1615;SDS011;801;47.982;7.810;2022-08-19T11:08:00;12.73;;;4.47;;
1615;SDS011;801;47.982;7.810;2022-08-19T11:10:26;8.13;;;4.30;;
1615;SDS011;801;47.982;7.810;2022-08-19T11:12:53;13.43;;;4.65;;
1615;SDS011;801;47.982;7.810;2022-08-19T11:15:20;9.73;;;4.72;;
1615;SDS011;801;47.982;7.810;2022-08-19T11:17:48;9.40;;;4.43;;
1615;SDS011;801;47.982;7.810;2022-08-19T11:20:17;6.18;;;4.07;;
1615;SDS011;801;47.982;7.810;2022-08-19T11:22:43;7.15;;;4.22;;
1615;SDS011;801;47.982;7.810;2022-08-19T11:25:10;7.60;;;5.05;;
1615;SDS011;801;47.982;7.810;2022-08-19T11:27:37;8.18;;;5.22;;
1615;SDS011;801;47.982;7.810;2022-08-19T11:30:07;8.13;;;5.30;;
1615;SDS011;801;47.982;7.810;2022-08-19T11:32:34;15.48;;;5.15;;
1615;SDS011;801;47.982;7.810;2022-08-19T11:35:00;7.93;;;4.13;;
1615;SDS011;801;47.982;7.810;2022-08-19T11:37:28;8.85;;;4.53;;
1615;SDS011;801;47.982;7.810;2022-08-19T11:39:55;8.98;;;5.30;;
1615;SDS011;801;47.982;7.810;2022-08-19T11:42:21;13.05;;;5.10;;
1615;SDS011;801;47.982;7.810;2022-08-19T11:45:06;9.35;;;5.32;;
1615;SDS011;801;47.982;7.810;2022-08-19T11:47:34;14.10;;;5.93;;
1615;SDS011;801;47.982;7.810;2022-08-19T11:50:00;8.60;;;5.45;;
1615;SDS011;801;47.982;7.810;2022-08-19T11:52:27;8.65;;;4.28;;
1615;SDS011;801;47.982;7.810;2022-08-19T11:54:55;7.93;;;5.30;;
1615;SDS011;801;47.982;7.810;2022-08-19T11:57:21;8.07;;;4.15;;
1615;SDS011;801;47.982;7.810;2022-08-19T11:59:48;8.30;;;5.18;;
1615;SDS011;801;47.982;7.810;2022-08-19T12:02:17;9.55;;;4.82;;
1615;SDS011;801;47.982;7.810;2022-08-19T12:04:45;6.30;;;3.42;;
1615;SDS011;801;47.982;7.810;2022-08-19T12:07:12;10.00;;;5.57;;
1615;SDS011;801;47.982;7.810;2022-08-19T12:09:40;11.45;;;5.40;;
1615;SDS011;801;47.982;7.810;2022-08-19T12:12:07;7.78;;;4.75;;
1615;SDS011;801;47.982;7.810;2022-08-19T12:14:34;11.60;;;3.10;;
1615;SDS011;801;47.982;7.810;2022-08-19T12:17:01;7.25;;;4.57;;
1615;SDS011;801;47.982;7.810;2022-08-19T12:19:29;6.35;;;3.78;;
1615;SDS011;801;47.982;7.810;2022-08-19T12:21:58;10.77;;;5.10;;
1615;SDS011;801;47.982;7.810;2022-08-19T12:24:26;6.68;;;4.75;;
1615;SDS011;801;47.982;7.810;2022-08-19T12:26:54;7.38;;;4.72;;
1615;SDS011;801;47.982;7.810;2022-08-19T12:29:21;6.43;;;3.92;;
1615;SDS011;801;47.982;7.810;2022-08-19T12:31:49;8.57;;;4.95;;
1615;SDS011;801;47.982;7.810;2022-08-19T12:34:15;6.78;;;3.65;;
1615;SDS011;801;47.982;7.810;2022-08-19T12:36:42;5.93;;;3.95;;
1615;SDS011;801;47.982;7.810;2022-08-19T12:39:08;5.78;;;3.92;;
1615;SDS011;801;47.982;7.810;2022-08-19T12:41:35;10.02;;;5.28;;
1615;SDS011;801;47.982;7.810;2022-08-19T12:44:03;6.20;;;4.32;;
1615;SDS011;801;47.982;7.810;2022-08-19T12:46:30;9.02;;;4.65;;
1615;SDS011;801;47.982;7.810;2022-08-19T12:48:57;7.93;;;4.10;;
1615;SDS011;801;47.982;7.810;2022-08-19T12:51:23;5.00;;;3.40;;
1615;SDS011;801;47.982;7.810;2022-08-19T12:53:52;7.28;;;4.00;;
1615;SDS011;801;47.982;7.810;2022-08-19T12:56:18;8.00;;;5.15;;
1615;SDS011;801;47.982;7.810;2022-08-19T12:58:44;5.95;;;4.07;;
1615;SDS011;801;47.982;7.810;2022-08-19T13:01:14;11.52;;;4.05;;
1615;SDS011;801;47.982;7.810;2022-08-19T13:03:42;6.22;;;4.20;;
1615;SDS011;801;47.982;7.810;2022-08-19T13:06:10;7.60;;;4.90;;
1615;SDS011;801;47.982;7.810;2022-08-19T13:08:37;7.32;;;4.40;;
1615;SDS011;801;47.982;7.810;2022-08-19T13:11:08;7.15;;;4.22;;
1615;SDS011;801;47.982;7.810;2022-08-19T13:13:37;8.50;;;5.05;;
1615;SDS011;801;47.982;7.810;2022-08-19T13:16:05;6.03;;;3.70;;
1615;SDS011;801;47.982;7.810;2022-08-19T13:18:34;4.45;;;2.83;;
1615;SDS011;801;47.982;7.810;2022-08-19T13:21:02;5.43;;;3.42;;
1615;SDS011;801;47.982;7.810;2022-08-19T13:23:30;4.25;;;3.42;;
1615;SDS011;801;47.982;7.810;2022-08-19T13:25:57;7.47;;;3.78;;
